Accueil
METAR-TAF:

METAR-TAF

Aéroports :

Locarno, Suisse

latitude: 46-09-55N, longitude: 8-52-40E, altitude: 198 m

Observation

Le bulletin a été fait il y a 49 minutes, à 08:50 UTC
Vent 1 kt de direction variable
Température 19°C
Humidité 52%
Pression 1029 hPa
Visibilité 10 km ou plus
pas de nuages en-dessous de 1500 mètres et pas de cumulonimbus.

METAR: LSZL 190850Z VRB01KT CAVOK 19/09 Q1029 RMK BLU

Heure: 11:39 (09:39 UTC)

Prévision

Le bulletin a été fait il y a 4 heures et 14 minutes, à 05:25 UTC
Prévision valable du 19 à 06 UTC au 19 à 15 UTC
Vent 3 kt de direction variable
Visibilité 10 km ou plus
pas de nuages en-dessous de 1500 mètres et pas de cumulonimbus.
Temporairement
du 19 à 12 UTC au 19 à 15 UTC
Visibilité 10 km ou plus
Quelques nuages à une hauteur de 6000 ft

TAF: LSZL 190525Z 1906/1915 VRB03KT CAVOK TEMPO 1912/1915 9999 FEW060

Observations et prévisions météorologiques de plus de 4000 aéroports (messages METAR et TAF).

Les stations disponibles sont représentées par des disques jaunes et rouges sur la carte.

Passer la souris dessus pour voir le nom de la station.

Cliquer dessus pour voir les observations et prévisions météorologiques.

Pour changer de carte: cliquez sur les boutons verts avec une croix noire pour zoomer, sur le bouton vert avec un tiret pour effectuer un zoom arrière, ou sur les flèches vertes pour les cartes adjacentes.


METAR-TAF: